Blanco, Oklahoma
Current Conditions -  °F | °C
As of 11:53 AM on Wednesday 28 Jan 2015 (Local Time) from KMLC Reporting Station
Few Clouds Few Clouds  
Wind Chill: 72°   Ceiling: Unl
Heat Index: 72°   Visibility: 10mi
Dew Point: 40°   Wind: 14mph
Humidity: 31%   Direction: 180°S
Pressure: 30.04"   Gusts: 24mph
Location:  34.75°N, 95.78°W
Report Text: KMLC 281753Z AUTO 18012G21KT 10SM FEW110 22/04 A3004 RMK AO2 SLP167 T02220044 10222 20094 58021
Loading
Personal Weather Stations






























Interactive Weather Map New forecast layout! Learn more

10-Day Weather Forecast

Advertisements
Track Severe Weather on mobile